Terminal Aerodrome Forecast
Issued by NWS

Home | Current Version | Previous Version | Text Only | Print | Product List | Glossary On
Versions: 1 2 3 4 5 6 7 8 9 10 11 12 13 14 15 16
880
FTUS42 KILM 092320
TAFCRE
TAF
KCRE 092320Z 1000/1024 25016G25KT P6SM BKN050
     FM100200 25009KT P6SM SCT050 BKN100
     FM100900 26007KT P6SM SKC
     FM101500 28014G24KT P6SM SCT050 SCT100=

USA.gov is the U.S. government's official web portal to all federal, state and local government web resources and services.